Navy Homeport, Mississippi
Current Conditions -  °F | °C
As of 6:53 AM on Monday 22 Dec 2014 (Local Time) from KPQL Reporting Station
Light Rain Light Rain  
Wind Chill: 58°   Ceiling: 300
Heat Index: 58°   Visibility: 5mi
Dew Point: 58°   Wind: 7mph
Humidity: 100%   Direction: 100°E
Pressure: 29.87"   Gusts: NA
Location:  30.3627°N, 88.5463°W
Report Text: KPQL 221253Z 10006KT 5SM -RA BR OVC003 14/14 A2987 RMK AO2 RAB21 SLP117 P0000 T01440144
Loading
Personal Weather Stations






























Interactive Weather Map New forecast layout! Learn more

10-Day Weather Forecast

Advertisements
Track Severe Weather on mobile